sensor_id;sensor_type;location;lat;lon;timestamp;pressure;altitude;pressure_sealevel;temperature;humidity
64841;BME280;51307;52.162;7.560;2023-02-20T00:01:51;101944.97;;;6.68;60.86
64841;BME280;51307;52.162;7.560;2023-02-20T00:04:18;101937.53;;;6.86;60.65
64841;BME280;51307;52.162;7.560;2023-02-20T00:06:44;101938.19;;;6.77;60.82
64841;BME280;51307;52.162;7.560;2023-02-20T00:09:11;101925.63;;;6.66;61.25
64841;BME280;51307;52.162;7.560;2023-02-20T00:11:36;101920.94;;;6.44;61.70
64841;BME280;51307;52.162;7.560;2023-02-20T00:14:02;101929.13;;;6.67;61.30
64841;BME280;51307;52.162;7.560;2023-02-20T00:16:28;101935.09;;;6.45;61.71
64841;BME280;51307;52.162;7.560;2023-02-20T00:18:53;101926.50;;;6.54;61.87
64841;BME280;51307;52.162;7.560;2023-02-20T00:21:19;101927.97;;;6.32;62.38
64841;BME280;51307;52.162;7.560;2023-02-20T00:23:44;101929.88;;;6.56;61.81
64841;BME280;51307;52.162;7.560;2023-02-20T00:26:11;101926.59;;;6.52;61.67
64841;BME280;51307;52.162;7.560;2023-02-20T00:28:39;101914.56;;;6.72;61.40
64841;BME280;51307;52.162;7.560;2023-02-20T00:31:06;101925.44;;;6.56;61.52
64841;BME280;51307;52.162;7.560;2023-02-20T00:33:32;101916.59;;;6.69;61.18
64841;BME280;51307;52.162;7.560;2023-02-20T00:35:58;101915.84;;;6.54;61.56
64841;BME280;51307;52.162;7.560;2023-02-20T00:38:23;101916.41;;;6.59;61.69
64841;BME280;51307;52.162;7.560;2023-02-20T00:40:49;101913.50;;;6.36;62.59
64841;BME280;51307;52.162;7.560;2023-02-20T00:43:15;101907.25;;;6.63;61.66
64841;BME280;51307;52.162;7.560;2023-02-20T00:45:40;101905.84;;;6.19;62.97
64841;BME280;51307;52.162;7.560;2023-02-20T00:48:06;101898.19;;;6.53;62.02
64841;BME280;51307;52.162;7.560;2023-02-20T00:50:31;101894.56;;;6.41;62.40
64841;BME280;51307;52.162;7.560;2023-02-20T00:52:57;101893.50;;;6.44;62.32
64841;BME280;51307;52.162;7.560;2023-02-20T00:55:22;101885.75;;;6.28;62.83
64841;BME280;51307;52.162;7.560;2023-02-20T00:57:48;101883.81;;;6.43;62.17
64841;BME280;51307;52.162;7.560;2023-02-20T01:00:20;101885.00;;;6.38;62.51
64841;BME280;51307;52.162;7.560;2023-02-20T01:02:46;101892.25;;;6.62;61.82
64841;BME280;51307;52.162;7.560;2023-02-20T01:05:12;101887.44;;;6.16;62.79
64841;BME280;51307;52.162;7.560;2023-02-20T01:07:38;101878.09;;;6.23;62.54
64841;BME280;51307;52.162;7.560;2023-02-20T01:10:03;101877.56;;;6.44;62.22
64841;BME280;51307;52.162;7.560;2023-02-20T01:12:29;101863.00;;;6.36;62.36
64841;BME280;51307;52.162;7.560;2023-02-20T01:14:55;101850.22;;;6.54;61.86
64841;BME280;51307;52.162;7.560;2023-02-20T01:17:20;101845.66;;;6.56;61.65
64841;BME280;51307;52.162;7.560;2023-02-20T01:19:46;101855.31;;;6.70;61.38
64841;BME280;51307;52.162;7.560;2023-02-20T01:22:11;101855.22;;;6.59;61.56
64841;BME280;51307;52.162;7.560;2023-02-20T01:24:37;101842.47;;;6.51;61.66
64841;BME280;51307;52.162;7.560;2023-02-20T01:27:06;101836.28;;;6.51;61.68
64841;BME280;51307;52.162;7.560;2023-02-20T01:29:31;101837.16;;;6.51;61.44
64841;BME280;51307;52.162;7.560;2023-02-20T01:31:56;101832.47;;;6.29;62.21
64841;BME280;51307;52.162;7.560;2023-02-20T01:34:22;101834.50;;;6.51;61.68
64841;BME280;51307;52.162;7.560;2023-02-20T01:36:50;101817.69;;;6.25;62.45
64841;BME280;51307;52.162;7.560;2023-02-20T01:39:20;101821.41;;;6.48;61.68
64841;BME280;51307;52.162;7.560;2023-02-20T01:41:49;101829.94;;;6.28;62.06
64841;BME280;51307;52.162;7.560;2023-02-20T01:44:25;101815.03;;;6.38;61.79
64841;BME280;51307;52.162;7.560;2023-02-20T01:46:56;101801.53;;;6.54;61.71
64841;BME280;51307;52.162;7.560;2023-02-20T01:49:40;101806.13;;;6.39;61.90
64841;BME280;51307;52.162;7.560;2023-02-20T01:57:27;101764.59;;;6.49;62.12
64841;BME280;51307;52.162;7.560;2023-02-20T01:59:59;101771.88;;;6.47;62.09
64841;BME280;51307;52.162;7.560;2023-02-20T02:02:32;101771.41;;;6.53;62.31
64841;BME280;51307;52.162;7.560;2023-02-20T02:05:00;101763.47;;;6.40;62.36
64841;BME280;51307;52.162;7.560;2023-02-20T02:07:28;101767.31;;;6.73;61.84
64841;BME280;51307;52.162;7.560;2023-02-20T02:10:18;101755.13;;;6.58;62.29
64841;BME280;51307;52.162;7.560;2023-02-20T02:12:48;101754.84;;;6.50;62.24
64841;BME280;51307;52.162;7.560;2023-02-20T02:15:18;101754.56;;;6.66;62.21
64841;BME280;51307;52.162;7.560;2023-02-20T02:23:36;101739.81;;;6.86;61.60
64841;BME280;51307;52.162;7.560;2023-02-20T02:29:30;101737.72;;;6.54;62.58
64841;BME280;51307;52.162;7.560;2023-02-20T02:45:55;101698.63;;;6.67;62.41
64841;BME280;51307;52.162;7.560;2023-02-20T02:48:36;101690.94;;;6.76;61.80
64841;BME280;51307;52.162;7.560;2023-02-20T02:51:16;101681.00;;;6.78;61.75
64841;BME280;51307;52.162;7.560;2023-02-20T02:54:09;101684.81;;;6.62;62.24
64841;BME280;51307;52.162;7.560;2023-02-20T02:56:38;101669.66;;;6.76;62.07
64841;BME280;51307;52.162;7.560;2023-02-20T02:59:08;101669.38;;;6.67;62.06
64841;BME280;51307;52.162;7.560;2023-02-20T03:01:41;101676.03;;;6.73;61.87
64841;BME280;51307;52.162;7.560;2023-02-20T03:04:11;101669.38;;;6.43;62.68
64841;BME280;51307;52.162;7.560;2023-02-20T03:06:42;101672.75;;;6.69;62.25
64841;BME280;51307;52.162;7.560;2023-02-20T03:09:10;101674.00;;;6.52;62.58
64841;BME280;51307;52.162;7.560;2023-02-20T03:11:38;101677.63;;;6.51;62.49
64841;BME280;51307;52.162;7.560;2023-02-20T03:19:52;101664.22;;;6.53;62.72
64841;BME280;51307;52.162;7.560;2023-02-20T03:22:33;101661.56;;;6.53;62.68
64841;BME280;51307;52.162;7.560;2023-02-20T03:25:16;101653.19;;;6.70;62.14
64841;BME280;51307;52.162;7.560;2023-02-20T03:27:53;101660.38;;;6.57;62.28
64841;BME280;51307;52.162;7.560;2023-02-20T03:36:11;101671.44;;;6.51;62.60
64841;BME280;51307;52.162;7.560;2023-02-20T03:39:02;101668.06;;;6.49;62.74
64841;BME280;51307;52.162;7.560;2023-02-20T03:41:49;101666.63;;;6.56;62.65
64841;BME280;51307;52.162;7.560;2023-02-20T03:44:35;101669.41;;;6.54;62.59
64841;BME280;51307;52.162;7.560;2023-02-20T03:47:02;101668.56;;;6.54;62.64
64841;BME280;51307;52.162;7.560;2023-02-20T03:49:39;101658.84;;;6.42;62.89
64841;BME280;51307;52.162;7.560;2023-02-20T03:52:06;101653.81;;;6.50;62.97
64841;BME280;51307;52.162;7.560;2023-02-20T03:54:34;101645.84;;;6.50;63.10
64841;BME280;51307;52.162;7.560;2023-02-20T03:57:26;101638.94;;;6.47;63.14
64841;BME280;51307;52.162;7.560;2023-02-20T04:00:03;101647.19;;;6.55;62.91
64841;BME280;51307;52.162;7.560;2023-02-20T04:02:35;101650.25;;;6.25;63.62
64841;BME280;51307;52.162;7.560;2023-02-20T04:05:11;101653.28;;;6.45;63.32
64841;BME280;51307;52.162;7.560;2023-02-20T04:10:17;101645.59;;;6.29;63.62
64841;BME280;51307;52.162;7.560;2023-02-20T04:12:46;101639.88;;;6.46;63.12
64841;BME280;51307;52.162;7.560;2023-02-20T04:15:16;101639.09;;;6.33;63.80
64841;BME280;51307;52.162;7.560;2023-02-20T04:17:57;101624.31;;;6.53;63.05
64841;BME280;51307;52.162;7.560;2023-02-20T04:20:24;101627.66;;;6.44;63.28
64841;BME280;51307;52.162;7.560;2023-02-20T04:22:56;101626.34;;;6.25;63.99
64841;BME280;51307;52.162;7.560;2023-02-20T04:25:35;101615.31;;;6.18;64.31
64841;BME280;51307;52.162;7.560;2023-02-20T04:28:03;101607.34;;;6.43;63.80
64841;BME280;51307;52.162;7.560;2023-02-20T04:30:30;101611.31;;;6.37;64.09
64841;BME280;51307;52.162;7.560;2023-02-20T04:32:56;101605.19;;;6.23;64.27
64841;BME280;51307;52.162;7.560;2023-02-20T04:35:22;101612.25;;;6.12;64.79
64841;BME280;51307;52.162;7.560;2023-02-20T04:37:48;101609.97;;;5.94;65.19
64841;BME280;51307;52.162;7.560;2023-02-20T04:40:18;101602.31;;;6.27;64.51
64841;BME280;51307;52.162;7.560;2023-02-20T04:42:44;101614.59;;;6.40;64.33
64841;BME280;51307;52.162;7.560;2023-02-20T04:45:10;101617.53;;;6.24;64.58
64841;BME280;51307;52.162;7.560;2023-02-20T04:47:35;101603.69;;;6.32;64.66
64841;BME280;51307;52.162;7.560;2023-02-20T04:50:01;101602.16;;;6.41;64.21
64841;BME280;51307;52.162;7.560;2023-02-20T04:52:27;101600.84;;;6.22;64.82
64841;BME280;51307;52.162;7.560;2023-02-20T04:54:52;101609.00;;;6.32;64.75
64841;BME280;51307;52.162;7.560;2023-02-20T04:57:18;101600.81;;;5.98;65.39
64841;BME280;51307;52.162;7.560;2023-02-20T04:59:43;101607.81;;;5.99;65.46
64841;BME280;51307;52.162;7.560;2023-02-20T05:02:09;101605.16;;;6.12;65.26
64841;BME280;51307;52.162;7.560;2023-02-20T05:04:35;101600.16;;;6.07;65.56
64841;BME280;51307;52.162;7.560;2023-02-20T05:07:01;101607.94;;;5.98;65.65
64841;BME280;51307;52.162;7.560;2023-02-20T05:09:27;101604.00;;;6.28;65.06
64841;BME280;51307;52.162;7.560;2023-02-20T05:11:53;101605.47;;;6.07;65.38
64841;BME280;51307;52.162;7.560;2023-02-20T05:14:20;101606.78;;;5.89;66.06
64841;BME280;51307;52.162;7.560;2023-02-20T05:16:46;101597.56;;;6.19;65.27
64841;BME280;51307;52.162;7.560;2023-02-20T05:19:12;101585.09;;;5.95;65.88
64841;BME280;51307;52.162;7.560;2023-02-20T05:21:41;101591.13;;;6.34;64.96
64841;BME280;51307;52.162;7.560;2023-02-20T05:24:25;101588.69;;;6.07;65.86
64841;BME280;51307;52.162;7.560;2023-02-20T05:26:53;101593.03;;;6.08;65.94
64841;BME280;51307;52.162;7.560;2023-02-20T05:29:18;101598.63;;;5.92;66.31
64841;BME280;51307;52.162;7.560;2023-02-20T05:31:44;101584.44;;;6.04;66.21
64841;BME280;51307;52.162;7.560;2023-02-20T05:34:09;101572.56;;;5.97;66.35
64841;BME280;51307;52.162;7.560;2023-02-20T05:36:35;101592.25;;;6.19;66.22
64841;BME280;51307;52.162;7.560;2023-02-20T05:39:01;101592.16;;;6.20;65.91
64841;BME280;51307;52.162;7.560;2023-02-20T05:41:26;101582.59;;;6.18;65.98
64841;BME280;51307;52.162;7.560;2023-02-20T05:43:52;101588.81;;;6.05;66.66
64841;BME280;51307;52.162;7.560;2023-02-20T05:46:22;101585.09;;;5.95;66.84
64841;BME280;51307;52.162;7.560;2023-02-20T05:48:49;101588.22;;;6.13;66.25
64841;BME280;51307;52.162;7.560;2023-02-20T05:53:47;101589.75;;;6.04;66.54
64841;BME280;51307;52.162;7.560;2023-02-20T05:56:12;101602.97;;;5.93;67.14
64841;BME280;51307;52.162;7.560;2023-02-20T05:58:38;101592.00;;;5.98;66.94
64841;BME280;51307;52.162;7.560;2023-02-20T06:01:03;101600.00;;;5.85;67.23
64841;BME280;51307;52.162;7.560;2023-02-20T06:03:29;101602.41;;;6.01;67.03
64841;BME280;51307;52.162;7.560;2023-02-20T06:05:54;101605.63;;;5.93;67.11
64841;BME280;51307;52.162;7.560;2023-02-20T06:08:20;101594.16;;;6.17;66.51
64841;BME280;51307;52.162;7.560;2023-02-20T06:10:46;101625.72;;;5.84;67.65
64841;BME280;51307;52.162;7.560;2023-02-20T06:13:11;101611.59;;;6.21;66.67
64841;BME280;51307;52.162;7.560;2023-02-20T06:15:37;101602.09;;;6.05;66.91
64841;BME280;51307;52.162;7.560;2023-02-20T06:18:03;101592.78;;;5.87;67.30
64841;BME280;51307;52.162;7.560;2023-02-20T06:20:30;101598.84;;;6.13;66.97
64841;BME280;51307;52.162;7.560;2023-02-20T06:22:56;101585.84;;;5.97;67.18
64841;BME280;51307;52.162;7.560;2023-02-20T06:25:22;101579.25;;;6.27;66.36
64841;BME280;51307;52.162;7.560;2023-02-20T06:27:47;101586.16;;;6.05;67.25
64841;BME280;51307;52.162;7.560;2023-02-20T06:30:13;101589.59;;;6.43;66.23
64841;BME280;51307;52.162;7.560;2023-02-20T06:32:38;101590.09;;;6.24;66.62
64841;BME280;51307;52.162;7.560;2023-02-20T06:35:04;101586.41;;;5.89;67.68
64841;BME280;51307;52.162;7.560;2023-02-20T06:37:33;101568.78;;;6.13;66.88
64841;BME280;51307;52.162;7.560;2023-02-20T06:39:59;101575.06;;;6.12;67.40
64841;BME280;51307;52.162;7.560;2023-02-20T06:42:24;101574.34;;;6.34;66.57
64841;BME280;51307;52.162;7.560;2023-02-20T06:44:50;101579.78;;;6.32;66.48
64841;BME280;51307;52.162;7.560;2023-02-20T06:47:15;101571.59;;;6.22;66.80
64841;BME280;51307;52.162;7.560;2023-02-20T06:49:41;101569.53;;;6.39;66.49
64841;BME280;51307;52.162;7.560;2023-02-20T06:52:08;101580.84;;;6.05;67.26
64841;BME280;51307;52.162;7.560;2023-02-20T06:54:34;101569.59;;;6.26;66.83
64841;BME280;51307;52.162;7.560;2023-02-20T06:57:00;101563.19;;;6.29;66.81
64841;BME280;51307;52.162;7.560;2023-02-20T06:59:26;101563.19;;;6.04;67.32
64841;BME280;51307;52.162;7.560;2023-02-20T07:01:52;101573.03;;;6.15;67.27
64841;BME280;51307;52.162;7.560;2023-02-20T07:04:20;101576.63;;;6.14;66.96
64841;BME280;51307;52.162;7.560;2023-02-20T07:06:47;101574.47;;;6.32;66.67
64841;BME280;51307;52.162;7.560;2023-02-20T07:09:13;101578.19;;;6.30;66.86
64841;BME280;51307;52.162;7.560;2023-02-20T07:11:39;101578.34;;;6.15;66.98
64841;BME280;51307;52.162;7.560;2023-02-20T07:14:05;101588.28;;;6.00;67.63
64841;BME280;51307;52.162;7.560;2023-02-20T07:16:30;101584.44;;;6.53;66.25
64841;BME280;51307;52.162;7.560;2023-02-20T07:18:56;101593.38;;;6.52;66.06
64841;BME280;51307;52.162;7.560;2023-02-20T07:21:22;101594.28;;;6.39;66.43
64841;BME280;51307;52.162;7.560;2023-02-20T07:23:48;101593.13;;;6.55;66.29
64841;BME280;51307;52.162;7.560;2023-02-20T07:26:24;101591.75;;;6.38;66.02
64841;BME280;51307;52.162;7.560;2023-02-20T07:28:50;101588.97;;;6.64;65.74
64841;BME280;51307;52.162;7.560;2023-02-20T07:31:16;101591.69;;;6.51;66.03
64841;BME280;51307;52.162;7.560;2023-02-20T07:33:41;101592.81;;;6.35;66.47
64841;BME280;51307;52.162;7.560;2023-02-20T07:36:14;101601.63;;;6.60;65.76
64841;BME280;51307;52.162;7.560;2023-02-20T07:38:40;101588.34;;;6.36;66.35
64841;BME280;51307;52.162;7.560;2023-02-20T07:41:06;101582.44;;;6.68;65.47
64841;BME280;51307;52.162;7.560;2023-02-20T07:43:32;101587.84;;;6.31;66.39
64841;BME280;51307;52.162;7.560;2023-02-20T07:45:58;101590.03;;;6.61;65.68
64841;BME280;51307;52.162;7.560;2023-02-20T07:48:23;101578.63;;;6.23;66.52
64841;BME280;51307;52.162;7.560;2023-02-20T07:50:49;101566.25;;;6.35;66.25
64841;BME280;51307;52.162;7.560;2023-02-20T07:53:16;101573.41;;;6.46;65.97
64841;BME280;51307;52.162;7.560;2023-02-20T07:55:42;101549.03;;;6.52;65.77
64841;BME280;51307;52.162;7.560;2023-02-20T07:58:08;101560.69;;;6.38;66.11
64841;BME280;51307;52.162;7.560;2023-02-20T08:00:34;101556.09;;;6.65;65.84
64841;BME280;51307;52.162;7.560;2023-02-20T08:02:59;101571.66;;;6.58;66.09
64841;BME280;51307;52.162;7.560;2023-02-20T08:05:25;101558.69;;;6.53;66.02
64841;BME280;51307;52.162;7.560;2023-02-20T08:07:52;101562.91;;;6.45;66.42
64841;BME280;51307;52.162;7.560;2023-02-20T08:10:21;101586.97;;;6.54;66.21
64841;BME280;51307;52.162;7.560;2023-02-20T08:12:47;101575.28;;;6.57;66.27
64841;BME280;51307;52.162;7.560;2023-02-20T08:15:13;101568.56;;;6.76;65.72
64841;BME280;51307;52.162;7.560;2023-02-20T08:17:39;101569.41;;;6.76;65.70
64841;BME280;51307;52.162;7.560;2023-02-20T08:20:06;101562.75;;;6.70;65.90
64841;BME280;51307;52.162;7.560;2023-02-20T08:22:33;101566.09;;;6.61;66.05
64841;BME280;51307;52.162;7.560;2023-02-20T08:24:59;101565.69;;;6.79;65.76
64841;BME280;51307;52.162;7.560;2023-02-20T08:27:25;101563.97;;;6.78;65.86
64841;BME280;51307;52.162;7.560;2023-02-20T08:29:50;101570.84;;;6.69;66.19
64841;BME280;51307;52.162;7.560;2023-02-20T08:32:16;101561.78;;;6.71;66.40
64841;BME280;51307;52.162;7.560;2023-02-20T08:34:41;101554.19;;;6.78;65.98
64841;BME280;51307;52.162;7.560;2023-02-20T08:37:07;101561.78;;;6.71;66.13
64841;BME280;51307;52.162;7.560;2023-02-20T08:39:35;101558.44;;;6.81;66.17
64841;BME280;51307;52.162;7.560;2023-02-20T08:42:00;101558.38;;;6.69;66.79
64841;BME280;51307;52.162;7.560;2023-02-20T08:44:26;101541.97;;;6.76;66.59
64841;BME280;51307;52.162;7.560;2023-02-20T08:46:51;101548.50;;;6.71;66.75
64841;BME280;51307;52.162;7.560;2023-02-20T08:49:18;101540.03;;;6.78;66.68
64841;BME280;51307;52.162;7.560;2023-02-20T08:51:44;101549.34;;;6.72;66.57
64841;BME280;51307;52.162;7.560;2023-02-20T08:54:10;101527.91;;;6.98;66.12
64841;BME280;51307;52.162;7.560;2023-02-20T08:56:36;101549.69;;;6.67;66.77
64841;BME280;51307;52.162;7.560;2023-02-20T08:59:01;101544.63;;;6.76;66.80
64841;BME280;51307;52.162;7.560;2023-02-20T09:01:27;101530.94;;;7.04;66.15
64841;BME280;51307;52.162;7.560;2023-02-20T09:03:52;101526.19;;;6.97;66.16
64841;BME280;51307;52.162;7.560;2023-02-20T09:06:18;101528.09;;;6.95;66.67
64841;BME280;51307;52.162;7.560;2023-02-20T09:08:43;101544.47;;;7.01;66.11
64841;BME280;51307;52.162;7.560;2023-02-20T09:11:09;101540.78;;;6.91;66.33
64841;BME280;51307;52.162;7.560;2023-02-20T09:13:45;101521.50;;;7.00;66.36
64841;BME280;51307;52.162;7.560;2023-02-20T09:16:12;101516.53;;;6.96;66.67
64841;BME280;51307;52.162;7.560;2023-02-20T09:18:38;101530.09;;;7.15;66.29
64841;BME280;51307;52.162;7.560;2023-02-20T09:21:08;101514.75;;;7.07;66.50
64841;BME280;51307;52.162;7.560;2023-02-20T09:23:34;101508.81;;;7.04;66.43
64841;BME280;51307;52.162;7.560;2023-02-20T09:26:00;101516.91;;;7.02;66.72
64841;BME280;51307;52.162;7.560;2023-02-20T09:28:25;101519.19;;;7.07;66.68
64841;BME280;51307;52.162;7.560;2023-02-20T09:30:51;101519.31;;;7.17;66.54
64841;BME280;51307;52.162;7.560;2023-02-20T09:33:19;101515.47;;;7.10;66.69
64841;BME280;51307;52.162;7.560;2023-02-20T09:35:45;101519.91;;;6.98;66.82
64841;BME280;51307;52.162;7.560;2023-02-20T09:38:14;101497.44;;;7.13;66.62
64841;BME280;51307;52.162;7.560;2023-02-20T09:40:40;101501.66;;;7.27;66.54
64841;BME280;51307;52.162;7.560;2023-02-20T09:43:22;101521.97;;;7.05;66.80
64841;BME280;51307;52.162;7.560;2023-02-20T09:51:26;101526.22;;;7.42;66.09
64841;BME280;51307;52.162;7.560;2023-02-20T09:56:25;101528.53;;;7.35;66.39
64841;BME280;51307;52.162;7.560;2023-02-20T09:59:13;101520.78;;;7.21;66.77
64841;BME280;51307;52.162;7.560;2023-02-20T10:01:49;101528.19;;;7.40;66.18
64841;BME280;51307;52.162;7.560;2023-02-20T10:04:24;101540.41;;;7.20;66.91
64841;BME280;51307;52.162;7.560;2023-02-20T10:06:59;101543.41;;;7.38;66.43
64841;BME280;51307;52.162;7.560;2023-02-20T10:09:26;101541.84;;;7.47;66.58
64841;BME280;51307;52.162;7.560;2023-02-20T10:12:14;101543.28;;;7.28;66.54
64841;BME280;51307;52.162;7.560;2023-02-20T10:25:42;101545.59;;;7.33;67.02
64841;BME280;51307;52.162;7.560;2023-02-20T10:28:14;101551.66;;;7.57;66.28
64841;BME280;51307;52.162;7.560;2023-02-20T10:30:54;101560.94;;;7.52;66.40
64841;BME280;51307;52.162;7.560;2023-02-20T10:35:59;101559.38;;;7.38;66.57
64841;BME280;51307;52.162;7.560;2023-02-20T10:38:34;101564.59;;;7.51;66.54
64841;BME280;51307;52.162;7.560;2023-02-20T10:46:15;101563.59;;;7.74;66.17
64841;BME280;51307;52.162;7.560;2023-02-20T10:48:42;101544.75;;;7.55;66.70
64841;BME280;51307;52.162;7.560;2023-02-20T10:54:12;101538.91;;;7.72;66.28
64841;BME280;51307;52.162;7.560;2023-02-20T10:56:59;101542.31;;;7.63;66.64
64841;BME280;51307;52.162;7.560;2023-02-20T11:02:20;101556.38;;;7.54;67.13
64841;BME280;51307;52.162;7.560;2023-02-20T11:04:56;101540.13;;;7.68;66.45
64841;BME280;51307;52.162;7.560;2023-02-20T11:07:23;101563.13;;;7.69;66.57
64841;BME280;51307;52.162;7.560;2023-02-20T11:09:49;101538.44;;;7.67;66.74
64841;BME280;51307;52.162;7.560;2023-02-20T11:12:26;101529.19;;;7.83;66.22
64841;BME280;51307;52.162;7.560;2023-02-20T11:15:00;101510.22;;;7.65;66.86
64841;BME280;51307;52.162;7.560;2023-02-20T11:17:31;101523.06;;;7.71;66.60
64841;BME280;51307;52.162;7.560;2023-02-20T11:19:59;101545.47;;;7.68;66.59
64841;BME280;51307;52.162;7.560;2023-02-20T11:22:48;101529.94;;;7.85;66.36
64841;BME280;51307;52.162;7.560;2023-02-20T11:25:20;101524.63;;;7.62;66.98
64841;BME280;51307;52.162;7.560;2023-02-20T11:27:49;101517.13;;;7.67;66.79
64841;BME280;51307;52.162;7.560;2023-02-20T11:32:48;101494.38;;;7.63;66.92
64841;BME280;51307;52.162;7.560;2023-02-20T11:37:47;101519.44;;;8.04;65.96
64841;BME280;51307;52.162;7.560;2023-02-20T11:40:27;101494.13;;;7.66;66.82
64841;BME280;51307;52.162;7.560;2023-02-20T11:42:53;101496.78;;;7.78;66.74
64841;BME280;51307;52.162;7.560;2023-02-20T11:45:24;101499.69;;;7.63;67.22
64841;BME280;51307;52.162;7.560;2023-02-20T11:50:42;101485.16;;;7.67;67.35
64841;BME280;51307;52.162;7.560;2023-02-20T11:55:46;101486.97;;;7.78;66.89
64841;BME280;51307;52.162;7.560;2023-02-20T11:58:24;101508.22;;;7.89;66.55
64841;BME280;51307;52.162;7.560;2023-02-20T12:00:52;101554.41;;;7.56;67.22
64841;BME280;51307;52.162;7.560;2023-02-20T12:03:23;101507.66;;;7.74;66.98
64841;BME280;51307;52.162;7.560;2023-02-20T12:05:50;101494.13;;;7.78;67.02
64841;BME280;51307;52.162;7.560;2023-02-20T12:08:39;101504.78;;;7.66;67.17
64841;BME280;51307;52.162;7.560;2023-02-20T12:11:10;101505.94;;;7.85;66.72
64841;BME280;51307;52.162;7.560;2023-02-20T12:13:40;101503.94;;;7.66;67.08
64841;BME280;51307;52.162;7.560;2023-02-20T12:22:00;101493.41;;;7.53;67.88
64841;BME280;51307;52.162;7.560;2023-02-20T12:27:43;101503.31;;;7.73;68.30
64841;BME280;51307;52.162;7.560;2023-02-20T12:30:33;101507.88;;;7.83;68.10
64841;BME280;51307;52.162;7.560;2023-02-20T12:38:34;101490.50;;;7.67;69.10
64841;BME280;51307;52.162;7.560;2023-02-20T12:46:41;101482.28;;;7.59;69.73
64841;BME280;51307;52.162;7.560;2023-02-20T12:49:17;101481.44;;;7.47;70.68
64841;BME280;51307;52.162;7.560;2023-02-20T12:55:25;101490.03;;;7.51;70.28
64841;BME280;51307;52.162;7.560;2023-02-20T12:58:20;101493.66;;;7.50;70.25
64841;BME280;51307;52.162;7.560;2023-02-20T13:00:53;101494.03;;;7.45;70.12
64841;BME280;51307;52.162;7.560;2023-02-20T13:05:50;101476.00;;;7.49;70.54
64841;BME280;51307;52.162;7.560;2023-02-20T13:13:17;101468.84;;;7.61;70.34
64841;BME280;51307;52.162;7.560;2023-02-20T13:16:03;101470.13;;;7.78;69.68
64841;BME280;51307;52.162;7.560;2023-02-20T13:18:51;101485.06;;;7.57;70.26
64841;BME280;51307;52.162;7.560;2023-02-20T13:21:24;101481.59;;;7.89;69.38
64841;BME280;51307;52.162;7.560;2023-02-20T13:23:50;101468.44;;;7.65;70.01
64841;BME280;51307;52.162;7.560;2023-02-20T13:29:24;101443.03;;;7.72;69.92
64841;BME280;51307;52.162;7.560;2023-02-20T13:31:54;101456.81;;;7.66;69.72
64841;BME280;51307;52.162;7.560;2023-02-20T13:36:48;101463.78;;;7.90;69.35
64841;BME280;51307;52.162;7.560;2023-02-20T13:57:43;101429.03;;;7.48;70.97
64841;BME280;51307;52.162;7.560;2023-02-20T14:02:58;101412.75;;;7.73;70.40
64841;BME280;51307;52.162;7.560;2023-02-20T14:05:30;101444.03;;;7.49;70.97
64841;BME280;51307;52.162;7.560;2023-02-20T14:07:57;101417.88;;;7.54;70.79
64841;BME280;51307;52.162;7.560;2023-02-20T14:13:01;101422.06;;;7.68;70.70
64841;BME280;51307;52.162;7.560;2023-02-20T14:15:30;101406.56;;;7.73;70.71
64841;BME280;51307;52.162;7.560;2023-02-20T14:17:57;101408.03;;;7.98;69.71
64841;BME280;51307;52.162;7.560;2023-02-20T14:20:33;101399.19;;;7.77;70.49
64841;BME280;51307;52.162;7.560;2023-02-20T14:25:31;101396.50;;;7.77;70.26
64841;BME280;51307;52.162;7.560;2023-02-20T14:28:06;101398.22;;;7.66;70.82
64841;BME280;51307;52.162;7.560;2023-02-20T14:30:32;101396.78;;;7.95;70.02
64841;BME280;51307;52.162;7.560;2023-02-20T14:32:58;101391.59;;;7.61;70.61
64841;BME280;51307;52.162;7.560;2023-02-20T14:35:45;101405.59;;;7.74;70.35
64841;BME280;51307;52.162;7.560;2023-02-20T14:40:59;101389.78;;;7.61;71.06
64841;BME280;51307;52.162;7.560;2023-02-20T14:43:27;101389.63;;;7.74;70.51
64841;BME280;51307;52.162;7.560;2023-02-20T14:46:07;101393.78;;;7.67;70.36
64841;BME280;51307;52.162;7.560;2023-02-20T14:48:36;101396.25;;;7.80;70.39
64841;BME280;51307;52.162;7.560;2023-02-20T14:53:35;101394.91;;;8.06;69.34
64841;BME280;51307;52.162;7.560;2023-02-20T14:56:15;101391.97;;;8.09;69.47
64841;BME280;51307;52.162;7.560;2023-02-20T14:58:45;101393.47;;;8.02;69.47
64841;BME280;51307;52.162;7.560;2023-02-20T15:01:38;101402.81;;;7.75;70.16
64841;BME280;51307;52.162;7.560;2023-02-20T15:04:10;101387.31;;;8.23;69.12
64841;BME280;51307;52.162;7.560;2023-02-20T15:06:39;101397.25;;;8.00;69.91
64841;BME280;51307;52.162;7.560;2023-02-20T15:09:05;101393.19;;;8.17;69.27
64841;BME280;51307;52.162;7.560;2023-02-20T15:11:32;101403.50;;;8.10;69.28
64841;BME280;51307;52.162;7.560;2023-02-20T15:13:59;101392.13;;;8.08;69.29
64841;BME280;51307;52.162;7.560;2023-02-20T15:16:29;101386.47;;;8.01;69.83
64841;BME280;51307;52.162;7.560;2023-02-20T15:18:56;101399.97;;;8.09;69.41
64841;BME280;51307;52.162;7.560;2023-02-20T15:21:34;101410.50;;;8.11;69.17
64841;BME280;51307;52.162;7.560;2023-02-20T15:24:27;101396.03;;;8.04;69.45
64841;BME280;51307;52.162;7.560;2023-02-20T15:27:15;101389.84;;;8.24;68.88
64841;BME280;51307;52.162;7.560;2023-02-20T15:29:43;101391.84;;;8.32;68.71
64841;BME280;51307;52.162;7.560;2023-02-20T15:32:17;101401.94;;;8.07;69.29
64841;BME280;51307;52.162;7.560;2023-02-20T15:34:49;101404.53;;;8.19;69.01
64841;BME280;51307;52.162;7.560;2023-02-20T15:37:27;101410.13;;;8.16;69.23
64841;BME280;51307;52.162;7.560;2023-02-20T15:39:54;101413.44;;;8.08;69.54
64841;BME280;51307;52.162;7.560;2023-02-20T15:42:23;101413.88;;;7.92;70.23
64841;BME280;51307;52.162;7.560;2023-02-20T15:44:49;101392.31;;;8.37;68.78
64841;BME280;51307;52.162;7.560;2023-02-20T15:47:15;101407.16;;;8.30;68.88
64841;BME280;51307;52.162;7.560;2023-02-20T15:49:41;101409.38;;;8.25;69.04